Latest Weather Observations for Yeppoon

IDQ60801

Issued at 5:02 am EST Friday 12 February 2016 (issued every 30 minutes, with the page automatically refreshed every 10 minutes)

About weather observations | Map of weather stations | Latest weather observations for QLD | Other Formats
Station Details ID: 033294 Name: YEPPOON THE ESPLANADE Lat: -23.14 Lon: 150.75 Height: 5.5 m
Data from the previous 72 hours. | See also: Recent months at Yeppoon
Date/Time
EST
Temp
°C
App
Temp
°C
Dew
Point
Rel
Hum
%
Delta-T
°C
Wind Press
QNH
hPa
Press
MSL
hPa
Rain
since 9 am
mm
Dir
 
Spd
km/h
Gust
km/h
Spd
kts
Gust
kts
12/05:00am 23.4 24.3 19.2 77 2.7 S 13 17 7 9 1009.7 1009.7 0.0
12/04:30am 24.0 25.1 19.6 76 2.8 S 13 17 7 9 1009.5 1009.5 0.0
12/04:00am 24.4 25.2 19.8 75 3.0 SSE 15 24 8 13 1009.3 1009.3 0.0
12/03:30am 24.5 25.6 19.7 74 3.1 SSE 13 19 7 10 1009.4 1009.4 0.0
12/03:00am 24.7 25.8 19.7 73 3.2 SSE 13 17 7 9 1009.4 1009.4 0.0
12/02:30am 24.9 25.8 20.0 74 3.2 SSE 15 22 8 12 1009.4 1009.4 0.0
12/02:00am 25.2 25.6 19.8 72 3.5 SE 17 26 9 14 1009.6 1009.6 0.0
12/01:30am 25.2 26.6 20.3 74 3.2 SSE 13 19 7 10 1009.9 1009.9 0.0
12/01:00am 25.4 26.0 20.3 73 3.3 SSE 17 24 9 13 1010.2 1010.2 0.0
12/12:30am 25.7 25.9 20.5 73 3.4 SSE 20 32 11 17 1010.4 1010.4 0.0
12/12:00am 26.0 26.4 20.7 72 3.5 SE 19 24 10 13 1010.4 1010.4 0.0
 
Date/Time
EST
Temp
°C
App
Temp
°C
Dew
Point
Rel
Hum
%
Delta-T
°C
Wind Press
QNH
hPa
Press
MSL
hPa
Rain
since 9 am
mm
Dir
 
Spd
km/h
Gust
km/h
Spd
kts
Gust
kts
11/11:30pm 26.2 26.6 20.7 71 3.6 SE 19 32 10 17 1010.5 1010.5 0.0
11/11:00pm 26.7 27.2 21.1 71 3.7 SE 20 32 11 17 1010.7 1010.7 0.0
11/10:30pm 26.7 27.2 20.9 70 3.8 ESE 19 28 10 15 1010.7 1010.7 0.0
11/10:00pm 26.7 26.5 20.5 69 4.1 SE 22 33 12 18 1010.7 1010.7 0.0
11/09:30pm 26.9 27.2 20.3 67 4.3 ESE 19 30 10 16 1010.7 1010.7 0.0
11/09:00pm 26.8 26.5 20.4 68 4.2 ESE 22 33 12 18 1010.6 1010.6 0.0
11/08:30pm 26.9 27.6 21.2 71 3.8 ESE 19 33 10 18 1010.5 1010.5 0.0
11/08:00pm 26.9 27.5 21.3 71 3.7 ESE 20 32 11 17 1010.2 1010.2 0.0
11/07:30pm 26.8 27.1 21.6 73 3.5 E 22 33 12 18 1009.9 1009.9 0.0
11/07:00pm 26.9 25.9 21.3 71 3.7 E 28 35 15 19 1009.5 1009.5 0.0
11/06:30pm 27.0 27.0 21.6 72 3.6 E 24 33 13 18 1009.2 1009.2 0.0
11/06:00pm 27.3 26.8 21.5 70 3.9 E 26 32 14 17 1008.9 1008.9 0.0
11/05:30pm 27.6 27.3 21.1 67 4.3 E 24 30 13 16 1008.8 1008.8 0.0
11/05:00pm 27.7 26.5 20.9 66 4.5 E 28 33 15 18 1008.7 1008.7 0.0
11/04:30pm 28.4 28.6 22.0 68 4.3 E 24 32 13 17 1008.5 1008.5 0.0
11/04:00pm 28.2 27.6 21.3 66 4.6 E 26 33 14 18 1008.2 1008.2 0.0
11/03:30pm 28.2 26.6 20.1 61 5.3 E 28 35 15 19 1008.1 1008.1 0.0
11/03:00pm 28.1 27.1 20.4 63 5.1 E 26 35 14 19 1008.3 1008.3 0.0
11/02:30pm 28.4 27.2 20.9 64 5.0 E 28 33 15 18 1008.6 1008.6 0.0
11/02:00pm 28.6 27.1 20.2 60 5.5 E 28 35 15 19 1009.0 1009.0 0.0
11/01:30pm 28.8 28.2 21.3 64 5.0 E 26 32 14 17 1009.1 1009.1 0.0
11/01:00pm 28.5 26.9 20.1 60 5.5 E 28 37 15 20 1009.4 1009.4 0.0
11/12:30pm 28.2 27.0 20.1 61 5.3 E 26 35 14 19 1009.8 1009.8 0.0
11/12:00pm 28.3 27.4 20.7 63 5.0 E 26 35 14 19 1010.0 1010.0 0.0
11/11:30am 28.1 27.5 20.5 63 5.0 E 24 33 13 18 1010.3 1010.3 0.0
11/11:00am 28.1 27.4 20.2 62 5.2 ESE 24 33 13 18 1010.6 1010.6 0.0
11/10:30am 28.0 28.0 19.7 60 5.4 ESE 19 28 10 15 1010.8 1010.8 0.0
11/10:00am 27.1 26.7 19.4 62 5.0 SE 20 28 11 15 1010.7 1010.7 0.0
11/09:30am 26.7 26.3 19.3 64 4.8 SE 20 30 11 16 1010.8 1010.8 0.0
11/09:00am 26.7 26.6 19.6 65 4.6 SE 19 30 10 16 1010.9 1010.9 0.0
11/08:30am 25.9 24.9 19.7 68 4.0 SSE 24 33 13 18 1010.8 1010.8 0.0
11/08:00am 25.6 25.3 19.6 69 3.9 SE 20 32 11 17 1010.9 1010.9 0.0
11/07:30am 25.0 24.5 19.9 73 3.3 SSE 22 35 12 19 1010.6 1010.6 0.0
11/07:00am 24.5 25.2 20.4 78 2.7 SE 17 26 9 14 1010.4 1010.4 0.0
11/06:30am 23.4 24.7 20.2 82 2.1 S 13 17 7 9 1010.0 1010.0 0.0
11/06:00am 22.7 24.3 19.9 84 1.8 S 11 19 6 10 1009.8 1009.8 0.0
11/05:30am 22.8 24.8 20.0 84 1.8 S 9 17 5 9 1009.5 1009.5 0.0
11/05:00am 23.3 24.2 20.0 82 2.1 SSE 15 20 8 11 1009.3 1009.3 0.0
11/04:30am 23.6 24.3 20.4 82 2.1 SSE 17 22 9 12 1009.0 1009.0 0.0
11/04:00am 23.7 24.2 20.1 80 2.3 SSE 17 24 9 13 1009.0 1009.0 0.0
11/03:30am 23.9 24.5 20.2 80 2.4 SSE 17 22 9 12 1009.0 1009.0 0.0
11/03:00am 24.1 24.7 20.3 79 2.5 SSE 17 24 9 13 1008.9 1008.9 0.0
11/02:30am 24.4 24.7 20.4 78 2.6 SSE 19 24 10 13 1009.0 1009.0 0.0
11/02:00am 24.7 26.0 20.9 79 2.5 SSE 15 24 8 13 1009.1 1009.1 0.0
11/01:30am 25.0 25.9 20.9 78 2.7 SSE 17 24 9 13 1009.1 1009.1 0.0
11/01:00am 25.2 26.1 20.8 76 2.9 SE 17 24 9 13 1009.5 1009.5 0.0
11/12:30am 25.3 25.8 20.9 76 2.9 SSE 19 24 10 13 1009.7 1009.7 0.0
11/12:00am 26.2 26.7 21.1 73 3.4 ESE 20 35 11 19 1010.1 1010.1 0.0
 
Date/Time
EST
Temp
°C
App
Temp
°C
Dew
Point
Rel
Hum
%
Delta-T
°C
Wind Press
QNH
hPa
Press
MSL
hPa
Rain
since 9 am
mm
Dir
 
Spd
km/h
Gust
km/h
Spd
kts
Gust
kts
10/11:30pm 26.2 26.7 20.9 72 3.5 ESE 19 28 10 15 1010.5 1010.5 0.0
10/11:00pm 26.3 26.1 20.5 70 3.8 ESE 22 33 12 18 1010.6 1010.6 0.0
10/10:30pm 26.3 26.8 21.2 73 3.4 ESE 20 33 11 18 1010.9 1010.9 0.0
10/10:00pm 26.3 25.3 21.2 73 3.4 ESE 28 39 15 21 1011.0 1011.0 0.0
10/09:30pm 25.7 25.9 22.0 80 2.5 E 24 33 13 18 1011.0 1011.0 0.0
10/09:13pm 26.1 25.6 22.2 79 2.6 E 28 50 15 27 1011.1 1011.1 0.0
10/09:00pm 26.5 26.4 22.3 78 2.8 E 26 33 14 18 1011.0 1011.0 0.0
10/08:30pm 26.7 27.4 21.6 73 3.4 ESE 20 35 11 19 1010.9 1010.9 0.0
10/08:00pm 26.7 26.9 21.3 72 3.6 E 22 32 12 17 1010.7 1010.7 0.0
10/07:30pm 26.8 26.7 21.4 72 3.6 E 24 33 13 18 1010.4 1010.4 0.0
10/07:00pm 26.8 26.1 21.1 71 3.8 E 26 37 14 20 1010.0 1010.0 0.0
10/06:30pm 27.0 26.8 21.3 71 3.8 E 24 33 13 18 1009.7 1009.7 0.0
10/06:00pm 27.4 28.5 21.9 72 3.7 ESE 19 28 10 15 1009.4 1009.4 0.0
10/05:30pm 27.7 28.3 21.4 68 4.2 E 20 30 11 16 1009.2 1009.2 0.0
10/05:00pm 28.1 28.6 21.2 66 4.6 E 20 26 11 14 1009.1 1009.1 0.0
10/04:30pm 28.1 27.9 21.2 66 4.6 E 24 30 13 16 1008.9 1008.9 0.0
10/04:00pm 28.5 27.8 20.3 61 5.4 E 24 32 13 17 1008.8 1008.8 0.0
10/03:30pm 28.4 28.0 20.2 61 5.4 E 22 32 12 17 1008.8 1008.8 0.0
10/03:00pm 28.7 28.2 20.7 62 5.3 E 24 35 13 19 1008.9 1008.9 0.0
10/02:30pm 28.5 27.3 20.1 60 5.5 E 26 35 14 19 1009.1 1009.1 0.0
10/02:00pm 29.1 28.7 20.1 58 5.9 ESE 22 33 12 18 1009.3 1009.3 0.0
10/01:30pm 28.5 28.8 21.5 66 4.7 E 22 32 12 17 1009.8 1009.8 0.0
10/01:00pm 28.6 27.9 19.5 58 5.9 E 22 32 12 17 1009.9 1009.9 0.0
10/12:30pm 28.6 27.9 19.5 58 5.9 ESE 22 32 12 17 1010.4 1010.4 0.0
10/12:00pm 28.5 27.6 19.9 59 5.6 E 24 32 13 17 1010.7 1010.7 0.0
10/11:30am 28.2 27.1 17.8 53 6.6 ESE 20 28 11 15 1010.9 1010.9 0.0
10/11:00am 27.7 26.8 19.0 59 5.6 ESE 22 30 12 16 1011.0 1011.0 0.0
10/10:30am 27.3 26.5 18.5 58 5.6 ESE 20 30 11 16 1011.2 1011.2 0.0
10/10:00am 27.3 26.5 18.5 58 5.6 SE 20 30 11 16 1011.3 1011.3 0.0
10/09:30am 26.3 25.4 19.0 64 4.7 SE 22 30 12 16 1011.3 1011.3 0.0
10/09:00am 26.2 25.1 19.4 66 4.4 SE 24 33 13 18 1011.1 1011.1 -
10/08:30am 25.9 24.9 19.6 68 4.1 SE 24 32 13 17 1011.2 1011.2 -
10/08:00am 25.4 25.2 19.3 69 3.9 SSE 19 30 10 16 1011.3 1011.3 -
10/07:30am 24.3 25.7 19.6 75 3.0 S 11 19 6 10 1011.0 1011.0 -
10/07:00am 23.7 24.6 19.3 76 2.8 S 13 20 7 11 1010.7 1010.7 -
10/06:30am 22.6 23.7 18.8 79 2.4 S 11 13 6 7 1010.6 1010.6 -
10/06:00am 22.0 22.5 18.3 79 2.3 SSW 13 17 7 9 1010.3 1010.3 -
10/05:30am 22.6 23.2 18.6 78 2.5 S 13 20 7 11 1009.8 1009.8 -
10/05:00am 23.0 23.2 18.6 76 2.8 S 15 20 8 11 1009.7 1009.7 -
10/04:30am 23.1 23.2 18.3 74 3.0 S 15 22 8 12 1009.6 1009.6 -
10/04:00am 24.0 23.3 18.6 72 3.4 SSE 20 30 11 16 1009.6 1009.6 -
10/03:30am 24.1 24.1 18.9 72 3.3 SE 17 24 9 13 1009.6 1009.6 -
10/03:00am 24.2 25.0 19.0 72 3.3 SE 13 19 7 10 1009.7 1009.7 0.0
10/02:30am 24.1 24.3 18.6 71 3.5 SSE 15 19 8 10 1010.0 1010.0 -
10/02:00am 24.4 23.9 19.1 72 3.4 SE 20 32 11 17 1010.0 1010.0 -
10/01:30am 24.7 25.3 19.4 72 3.4 SE 15 24 8 13 1010.2 1010.2 -
10/01:00am 24.9 24.4 19.1 70 3.7 SE 20 32 11 17 1010.6 1010.6 -
10/12:30am 25.4 25.1 19.5 70 3.8 SE 20 30 11 16 1010.9 1010.9 -
10/12:00am 26.1 24.0 18.9 64 4.6 ESE 28 41 15 22 1011.4 1011.4 -
 
Date/Time
EST
Temp
°C
App
Temp
°C
Dew
Point
Rel
Hum
%
Delta-T
°C
Wind Press
QNH
hPa
Press
MSL
hPa
Rain
since 9 am
mm
Dir
 
Spd
km/h
Gust
km/h
Spd
kts
Gust
kts
09/11:30pm 26.2 24.7 19.4 66 4.4 ESE 26 39 14 21 1011.6 1011.6 -
09/11:00pm 26.3 23.9 18.3 61 5.1 ESE 28 43 15 23 1012.0 1012.0 -
09/10:30pm 26.5 24.3 18.8 62 4.9 ESE 28 43 15 23 1012.4 1012.4 -
09/10:11pm 26.5 24.1 18.3 60 5.2 ESE 28 46 15 25 1012.6 1012.6 -
09/10:00pm 26.6 23.1 17.9 59 5.5 ESE 33 48 18 26 1012.5 1012.5 -
09/09:30pm 26.6 24.1 19.7 66 4.5 ESE 32 43 17 23 1012.5 1012.5 -
09/09:00pm 26.7 23.6 19.6 65 4.6 E 35 48 19 26 1012.3 1012.3 0.0
09/08:30pm 26.8 24.3 19.7 65 4.6 E 32 46 17 25 1012.4 1012.4 -
09/08:14pm 26.6 24.8 19.5 65 4.6 E 28 46 15 25 1012.3 1012.3 -
09/08:00pm 26.8 24.0 19.5 64 4.7 E 33 46 18 25 1012.2 1012.2 -
09/07:30pm 26.9 23.7 19.5 64 4.8 E 35 44 19 24 1012.1 1012.1 -
09/07:15pm 26.9 23.6 19.3 63 4.9 E 35 54 19 29 1012.0 1012.0 -
09/07:00pm 27.0 23.4 19.3 62 5.0 E 37 48 20 26 1011.7 1011.7 -
09/06:30pm 27.0 23.6 19.8 64 4.7 E 37 50 20 27 1011.6 1011.6 -
09/06:00pm 27.1 24.3 20.2 66 4.5 E 35 46 19 25 1011.3 1011.3 -
09/05:30pm 27.5 25.2 20.2 64 4.8 E 32 44 17 24 1010.9 1010.9 -
09/05:28pm 27.5 25.0 19.8 63 5.0 E 32 50 17 27 1010.9 1010.9 -
09/05:00pm 27.9 25.8 19.8 61 5.3 E 30 41 16 22 1010.6 1010.6 -
09/04:30pm 28.0 25.3 19.7 60 5.4 E 33 44 18 24 1010.4 1010.4 -
09/04:00pm 28.0 26.0 20.7 64 4.8 E 32 43 17 23 1010.3 1010.3 -
09/03:30pm 28.1 26.0 19.8 60 5.4 E 30 43 16 23 1010.5 1010.5 -
09/03:20pm 27.9 26.7 20.8 65 4.7 E 28 46 15 25 1010.6 1010.6 -
09/03:00pm 28.0 26.2 20.4 63 5.0 E 30 44 16 24 1010.7 1010.7 -
09/02:30pm 28.1 26.9 20.0 61 5.3 E 26 39 14 21 1010.8 1010.8 -
09/02:00pm 27.7 25.5 18.8 58 5.7 ESE 28 39 15 21 1011.2 1011.2 -
09/01:30pm 27.5 26.3 20.0 63 4.9 ESE 26 41 14 22 1011.4 1011.4 -
09/01:00pm 27.6 26.9 20.3 64 4.8 ESE 24 33 13 18 1011.8 1011.8 -
09/12:30pm 25.6 - 22.3 82 2.2 - - - - - 1012.1 1012.1 -
09/11:30am 24.6 23.0 21.9 85 1.8 E 33 50 18 27 1012.8 1012.8 0.0
09/11:21am 25.7 25.7 22.4 82 2.2 ESE 26 50 14 27 1012.8 1012.8 0.0
09/11:00am 26.7 27.2 21.1 71 3.7 ESE 20 32 11 17 1012.6 1012.6 0.0
09/10:30am 28.0 27.5 20.7 64 4.8 ESE 24 43 13 23 1012.7 1012.7 0.0
09/10:00am 26.7 26.3 20.1 67 4.3 ESE 22 33 12 18 1012.8 1012.8 0.0
09/09:30am 26.4 25.9 19.9 67 4.2 ESE 22 33 12 18 1013.0 1013.0 0.0
09/09:00am 26.6 26.1 20.0 67 4.3 ESE 22 33 12 18 1012.7 1012.7 0.2
09/08:30am 26.2 26.0 20.6 71 3.7 SE 22 33 12 18 1012.5 1012.5 0.2
09/08:00am 25.5 25.2 20.3 73 3.4 SE 22 35 12 19 1012.4 1012.4 0.2
09/07:30am 25.5 25.1 20.1 72 3.5 SE 22 33 12 18 1012.3 1012.3 0.2
09/07:00am 25.2 25.2 20.1 73 3.3 SE 20 32 11 17 1011.9 1011.9 0.2
09/06:30am 24.3 24.7 19.8 76 2.9 SE 17 28 9 15 1011.8 1011.8 0.2
09/06:00am 24.4 24.6 20.1 77 2.8 SE 19 26 10 14 1011.5 1011.5 0.2
09/05:30am 24.3 24.4 20.0 77 2.8 SE 19 28 10 15 1011.0 1011.0 0.2

Other Formats:

Comma delimited format used in spreadsheet applications
http://www.bom.gov.au/fwo/IDQ60801/IDQ60801.94373.axf

JavaScript Object Notation format (JSON) in row-major order
http://www.bom.gov.au/fwo/IDQ60801/IDQ60801.94373.json